createdAt,value
2017-11-04T00:00:10.628Z,7.48
2017-11-04T00:00:51.124Z,7.58
2017-11-04T00:01:31.535Z,7.48
2017-11-04T00:02:12.068Z,7.57
2017-11-04T00:04:30.981Z,7.62
2017-11-04T00:05:12.098Z,7.55
2017-11-04T00:05:52.575Z,7.63
2017-11-04T00:06:33.021Z,7.62
2017-11-04T00:07:13.481Z,7.6
2017-11-04T00:07:53.869Z,7.6
2017-11-04T00:08:34.309Z,7.77
2017-11-04T00:09:14.716Z,7.81
2017-11-04T00:09:55.089Z,7.84
2017-11-04T00:10:35.517Z,7.86
2017-11-04T00:11:15.872Z,7.81
2017-11-04T00:11:56.275Z,7.79
2017-11-04T00:12:36.685Z,7.94
2017-11-04T00:13:17.134Z,7.91
2017-11-04T00:13:57.551Z,7.89
2017-11-04T00:14:37.882Z,7.89
2017-11-04T00:15:18.315Z,8.02
2017-11-04T00:15:58.726Z,8.09
2017-11-04T00:16:39.119Z,8.13
2017-11-04T00:17:19.526Z,8.22
2017-11-04T00:17:59.968Z,8.18
2017-11-04T00:18:40.317Z,8.21
2017-11-04T00:19:20.738Z,8.17
2017-11-04T00:20:01.180Z,8.18
2017-11-04T00:20:41.659Z,8.04
2017-11-04T00:21:22.145Z,8.17
2017-11-04T00:22:02.485Z,8.06
2017-11-04T00:22:43.065Z,8.09
2017-11-04T00:23:23.439Z,8.06
2017-11-04T00:24:03.863Z,8
2017-11-04T00:24:44.250Z,7.95
2017-11-04T00:25:24.678Z,7.92
2017-11-04T00:26:05.086Z,7.92
2017-11-04T00:26:45.490Z,7.89
2017-11-04T00:27:25.867Z,7.95
2017-11-04T00:28:06.263Z,7.91
2017-11-04T00:28:46.689Z,7.95
2017-11-04T00:29:27.181Z,7.84
2017-11-04T00:30:07.542Z,7.81
2017-11-04T00:30:48.059Z,7.79
2017-11-04T00:31:28.520Z,7.79
2017-11-04T00:32:08.965Z,7.81
2017-11-04T00:32:49.360Z,7.84
2017-11-04T00:33:29.764Z,7.82
2017-11-04T00:34:10.273Z,7.82
2017-11-04T00:34:50.815Z,7.86
2017-11-04T00:35:31.214Z,7.84
2017-11-04T00:36:11.621Z,7.85
2017-11-04T00:36:52.004Z,7.84
2017-11-04T00:37:32.522Z,7.92
2017-11-04T00:38:12.964Z,7.95
2017-11-04T00:38:53.401Z,7.85
2017-11-04T00:39:33.839Z,7.96
2017-11-04T00:40:14.208Z,7.94
2017-11-04T00:40:54.583Z,7.92
2017-11-04T00:41:35.000Z,7.92
2017-11-04T00:42:15.378Z,8.02
2017-11-04T00:42:55.752Z,8.07
2017-11-04T00:43:36.214Z,8.09
2017-11-04T00:44:16.664Z,8.1
2017-11-04T00:44:57.155Z,8.18
2017-11-04T00:45:37.544Z,8.09
2017-11-04T00:46:17.954Z,8.09
2017-11-04T00:46:58.413Z,8.07
2017-11-04T00:47:38.874Z,8.1
2017-11-04T00:48:19.430Z,8.13
2017-11-04T00:48:59.798Z,8.13
2017-11-04T00:49:40.231Z,8.14
2017-11-04T00:50:20.607Z,8.18
2017-11-04T00:51:01.066Z,8.18
2017-11-04T00:51:41.442Z,8.1
2017-11-04T00:52:21.963Z,8.13
2017-11-04T00:53:02.343Z,8.22
2017-11-04T00:53:42.782Z,8.18
2017-11-04T00:54:23.138Z,8.21
2017-11-04T00:55:03.549Z,8.24
2017-11-04T00:55:43.924Z,8.25
2017-11-04T00:56:24.368Z,8.14
2017-11-04T00:57:04.812Z,8.17
2017-11-04T00:57:45.097Z,8.14
2017-11-04T00:58:25.516Z,8.13
2017-11-04T00:59:05.931Z,8.07
2017-11-04T00:59:46.416Z,8.13
2017-11-04T01:00:26.786Z,8
2017-11-04T01:01:07.213Z,8.07
2017-11-04T01:01:47.563Z,8.13
2017-11-04T01:02:28.027Z,8.09
2017-11-04T01:03:08.458Z,8.2
2017-11-04T01:03:48.819Z,8.13
2017-11-04T01:04:29.161Z,8.2
2017-11-04T01:05:09.656Z,8.17
2017-11-04T01:05:50.145Z,8.07
2017-11-04T01:06:30.538Z,8.14
2017-11-04T01:07:10.948Z,8.1
2017-11-04T01:07:51.329Z,8.13
2017-11-04T01:08:31.780Z,8.1
2017-11-04T01:09:12.214Z,8.13
2017-11-04T01:09:52.707Z,8.14
2017-11-04T01:10:33.036Z,8.22
2017-11-04T01:11:13.436Z,8.2
2017-11-04T01:11:53.884Z,8.17
2017-11-04T01:12:34.296Z,8.14
2017-11-04T01:13:14.654Z,8.27
2017-11-04T01:13:55.126Z,8.17
2017-11-04T01:14:35.529Z,8.17
2017-11-04T01:15:15.959Z,8.18
2017-11-04T01:15:56.435Z,8.21
2017-11-04T01:16:36.749Z,8.18
2017-11-04T01:17:17.159Z,8.18
2017-11-04T01:17:57.517Z,8.13
2017-11-04T01:18:37.944Z,8.17
2017-11-04T01:19:18.302Z,8.18
2017-11-04T01:19:58.719Z,8.17
2017-11-04T01:20:39.190Z,8.2
2017-11-04T01:21:19.558Z,8.07
2017-11-04T01:22:00.033Z,8.1
2017-11-04T01:22:40.446Z,8
2017-11-04T01:23:20.841Z,8
2017-11-04T01:24:01.292Z,8.07
2017-11-04T01:24:41.666Z,7.92
2017-11-04T01:25:22.076Z,7.96
2017-11-04T01:26:02.446Z,8
2017-11-04T01:26:42.863Z,7.94
2017-11-04T01:27:23.254Z,7.89
2017-11-04T01:28:03.627Z,7.94
2017-11-04T01:28:44.064Z,7.94
2017-11-04T01:29:24.471Z,7.94
2017-11-04T01:30:04.904Z,7.96
2017-11-04T01:30:45.339Z,8.02
2017-11-04T01:31:25.729Z,8.06
2017-11-04T01:32:06.161Z,8.04
2017-11-04T01:32:46.620Z,8.03
2017-11-04T01:33:26.996Z,8
2017-11-04T01:34:07.429Z,7.99
2017-11-04T01:34:47.794Z,8.03
2017-11-04T01:35:28.248Z,7.99
2017-11-04T01:36:08.661Z,8
2017-11-04T01:36:49.007Z,8.06
2017-11-04T01:37:29.423Z,7.95
2017-11-04T01:38:09.922Z,7.92
2017-11-04T01:38:50.360Z,7.92
2017-11-04T01:39:30.734Z,7.99
2017-11-04T01:40:11.231Z,7.99
2017-11-04T01:40:51.610Z,7.92
2017-11-04T01:41:32.049Z,7.96
2017-11-04T01:42:12.501Z,7.95
2017-11-04T01:42:52.977Z,8.03
2017-11-04T01:43:33.388Z,7.94
2017-11-04T01:44:13.866Z,7.99
2017-11-04T01:44:54.292Z,7.96
2017-11-04T01:45:34.770Z,7.95
2017-11-04T01:46:15.077Z,7.94
2017-11-04T01:46:55.529Z,7.91
2017-11-04T01:47:35.904Z,7.94
2017-11-04T01:48:16.337Z,7.77
2017-11-04T01:48:56.747Z,7.79
2017-11-04T01:49:37.289Z,7.85
2017-11-04T01:50:17.661Z,7.81
2017-11-04T01:50:58.020Z,7.82
2017-11-04T01:51:38.369Z,7.82
2017-11-04T01:52:18.807Z,7.85
2017-11-04T01:52:59.228Z,7.86
2017-11-04T01:53:39.635Z,7.95
2017-11-04T01:54:20.045Z,7.95
2017-11-04T01:55:00.434Z,7.94
2017-11-04T01:55:40.839Z,7.94
2017-11-04T01:56:21.303Z,7.91
2017-11-04T01:57:01.675Z,7.94
2017-11-04T01:57:42.072Z,8.03
2017-11-04T01:58:22.447Z,7.99
2017-11-04T01:59:02.851Z,8.07
2017-11-04T01:59:43.237Z,8.03
2017-11-04T02:00:23.676Z,7.99
2017-11-04T02:01:04.027Z,7.96
2017-11-04T02:01:44.430Z,7.94
2017-11-04T02:02:24.955Z,8.04
2017-11-04T02:03:05.362Z,8
2017-11-04T02:03:45.732Z,8.07
2017-11-04T02:04:26.164Z,8.17
2017-11-04T02:05:06.603Z,8.2
2017-11-04T02:05:47.014Z,8.13
2017-11-04T02:06:27.471Z,8.13
2017-11-04T02:07:07.966Z,8.07
2017-11-04T02:07:48.373Z,8
2017-11-04T02:08:28.770Z,8.07
2017-11-04T02:09:09.286Z,7.89
2017-11-04T02:09:49.736Z,7.95
2017-11-04T02:10:30.162Z,7.79
2017-11-04T02:11:10.532Z,7.82
2017-11-04T02:11:50.983Z,7.81
2017-11-04T02:12:31.415Z,7.82
2017-11-04T02:13:11.864Z,7.81
2017-11-04T02:13:52.259Z,7.81
2017-11-04T02:14:32.664Z,7.84
2017-11-04T02:15:13.040Z,7.82
2017-11-04T02:15:53.546Z,7.84
2017-11-04T02:16:34.085Z,7.79
2017-11-04T02:17:14.429Z,7.77
2017-11-04T02:17:54.890Z,7.74
2017-11-04T02:18:35.348Z,7.79
2017-11-04T02:19:15.719Z,7.81
2017-11-04T02:19:56.195Z,7.77
2017-11-04T02:20:36.691Z,7.76
2017-11-04T02:21:17.199Z,7.71
2017-11-04T02:21:57.567Z,7.7
2017-11-04T02:22:38.031Z,7.73
2017-11-04T02:23:18.465Z,7.69
2017-11-04T02:23:58.840Z,7.71
2017-11-04T02:24:39.258Z,7.76
2017-11-04T02:25:19.757Z,7.79
2017-11-04T02:26:00.202Z,7.77
2017-11-04T02:26:40.656Z,7.79
2017-11-04T02:27:21.026Z,7.79
2017-11-04T02:28:01.460Z,7.79
2017-11-04T02:28:41.950Z,7.77
2017-11-04T02:29:22.425Z,7.85
2017-11-04T02:30:02.841Z,7.86
2017-11-04T02:30:43.191Z,7.84
2017-11-04T02:31:23.706Z,7.79
2017-11-04T02:32:04.101Z,7.82
2017-11-04T02:32:44.502Z,7.86
2017-11-04T02:33:24.879Z,7.79
2017-11-04T02:34:05.303Z,7.82
2017-11-04T02:34:45.710Z,7.84
2017-11-04T02:35:26.268Z,7.85
2017-11-04T02:36:06.684Z,7.86
2017-11-04T02:36:47.086Z,7.84
2017-11-04T02:37:27.557Z,7.82
2017-11-04T02:38:07.938Z,7.86
2017-11-04T02:38:48.296Z,7.84
2017-11-04T02:39:28.748Z,7.85
2017-11-04T02:40:09.213Z,7.82
2017-11-04T02:40:49.605Z,7.92
2017-11-04T02:41:30.087Z,7.81
2017-11-04T02:42:10.434Z,7.79
2017-11-04T02:42:50.895Z,7.95
2017-11-04T02:43:31.251Z,7.91
2017-11-04T02:44:11.659Z,7.89
2017-11-04T02:44:52.040Z,7.88
2017-11-04T02:45:32.456Z,7.82
2017-11-04T02:46:12.933Z,7.88
2017-11-04T02:46:53.318Z,7.81
2017-11-04T02:47:33.702Z,7.76
2017-11-04T02:48:14.173Z,7.76
2017-11-04T02:48:54.517Z,7.84
2017-11-04T02:49:34.932Z,7.79
2017-11-04T02:50:15.361Z,7.88
2017-11-04T02:50:55.713Z,7.79
2017-11-04T02:51:36.140Z,7.85
2017-11-04T02:52:16.637Z,7.85
2017-11-04T02:52:57.007Z,7.79
2017-11-04T02:53:37.384Z,7.77
2017-11-04T02:54:17.787Z,7.81
2017-11-04T02:54:58.196Z,7.74
2017-11-04T02:55:38.565Z,7.74
2017-11-04T02:56:19.005Z,7.7
2017-11-04T02:56:59.393Z,7.69
2017-11-04T02:57:39.835Z,7.66
2017-11-04T02:58:20.203Z,7.71
2017-11-04T02:59:00.553Z,7.63
2017-11-04T02:59:41.001Z,7.63
2017-11-04T03:00:21.385Z,7.58
2017-11-04T03:01:01.833Z,7.55
2017-11-04T03:01:42.229Z,7.54
2017-11-04T03:02:22.655Z,7.58
2017-11-04T03:03:03.033Z,7.58
2017-11-04T03:03:43.480Z,7.6
2017-11-04T03:04:23.977Z,7.6
2017-11-04T03:05:04.422Z,7.57
2017-11-04T03:05:44.819Z,7.54
2017-11-04T03:06:25.217Z,7.58
2017-11-04T03:07:05.579Z,7.58
2017-11-04T03:07:46.014Z,7.57
2017-11-04T03:08:26.387Z,7.57
2017-11-04T03:09:06.786Z,7.55
2017-11-04T03:09:47.215Z,7.5
2017-11-04T03:10:27.599Z,7.55
2017-11-04T03:11:08.003Z,7.63
2017-11-04T03:11:48.418Z,7.51
2017-11-04T03:12:28.803Z,7.6
2017-11-04T03:13:09.230Z,7.55
2017-11-04T03:13:49.643Z,7.67
2017-11-04T03:14:30.128Z,7.62
2017-11-04T03:15:10.457Z,7.62
2017-11-04T03:15:50.872Z,7.63
2017-11-04T03:16:31.220Z,7.55
2017-11-04T03:17:11.662Z,7.62
2017-11-04T03:17:52.042Z,7.6
2017-11-04T03:18:32.507Z,7.57
2017-11-04T03:19:12.941Z,7.63
2017-11-04T03:19:53.362Z,7.6
2017-11-04T03:20:33.753Z,7.62
2017-11-04T03:21:14.106Z,7.55
2017-11-04T03:21:54.532Z,7.66
2017-11-04T03:22:34.897Z,7.62
2017-11-04T03:23:15.275Z,7.54
2017-11-04T03:23:55.862Z,7.55
2017-11-04T03:24:36.212Z,7.58
2017-11-04T03:25:16.560Z,7.48
2017-11-04T03:25:56.993Z,7.51
2017-11-04T03:26:37.357Z,7.57
2017-11-04T03:27:17.794Z,7.58
2017-11-04T03:27:58.249Z,7.44
2017-11-04T03:28:38.605Z,7.51
2017-11-04T03:29:19.106Z,7.51
2017-11-04T03:29:59.488Z,7.48
2017-11-04T03:30:39.860Z,7.6
2017-11-04T03:31:20.270Z,7.55
2017-11-04T03:32:00.650Z,7.7
2017-11-04T03:32:41.073Z,7.52
2017-11-04T03:33:21.493Z,7.57
2017-11-04T03:34:01.959Z,7.57
2017-11-04T03:34:42.397Z,7.57
2017-11-04T03:35:22.902Z,7.54
2017-11-04T03:36:03.330Z,7.58
2017-11-04T03:36:43.744Z,7.57
2017-11-04T03:37:24.230Z,7.54
2017-11-04T03:38:04.633Z,7.54
2017-11-04T03:38:45.017Z,7.45
2017-11-04T03:39:25.545Z,7.57
2017-11-04T03:40:06.020Z,7.57
2017-11-04T03:40:46.374Z,7.45
2017-11-04T03:41:26.821Z,7.58
2017-11-04T03:42:07.173Z,7.54
2017-11-04T03:42:47.563Z,7.5
2017-11-04T03:43:28.026Z,7.51
2017-11-04T03:44:08.426Z,7.58
2017-11-04T03:44:48.822Z,7.47
2017-11-04T03:45:29.357Z,7.48
2017-11-04T03:46:09.729Z,7.44
2017-11-04T03:46:50.164Z,7.47
2017-11-04T03:47:30.539Z,7.39
2017-11-04T03:48:10.949Z,7.33
2017-11-04T03:48:51.351Z,7.39
2017-11-04T03:49:31.778Z,7.37
2017-11-04T03:50:12.241Z,7.32
2017-11-04T03:50:52.659Z,7.32
2017-11-04T03:51:33.022Z,7.39
2017-11-04T03:52:13.428Z,7.32
2017-11-04T03:52:53.901Z,7.33
2017-11-04T03:53:34.340Z,7.34
2017-11-04T03:54:14.712Z,7.34
2017-11-04T03:54:55.073Z,7.48
2017-11-04T03:55:35.521Z,7.6
2017-11-04T03:56:15.908Z,7.52
2017-11-04T03:56:56.296Z,7.63
2017-11-04T03:57:36.709Z,7.55
2017-11-04T03:58:17.153Z,7.63
2017-11-04T03:58:57.543Z,7.62
2017-11-04T03:59:37.956Z,7.63
2017-11-04T04:00:18.433Z,7.6
2017-11-04T04:00:58.901Z,7.66
2017-11-04T04:01:39.304Z,7.81
2017-11-04T04:41:23.032Z,6.55
2017-11-04T04:42:15.844Z,6.53
2017-11-04T04:43:00.575Z,6.53
2017-11-04T04:43:40.982Z,6.5
2017-11-04T04:44:21.476Z,6.54
2017-11-04T04:45:01.813Z,6.5
2017-11-04T04:45:42.192Z,6.51
2017-11-04T04:46:22.630Z,6.53
2017-11-04T04:47:03.001Z,6.54
2017-11-04T04:47:43.446Z,6.55
2017-11-04T04:48:23.861Z,6.6
2017-11-04T04:49:04.327Z,6.55
2017-11-04T04:49:44.748Z,6.54
2017-11-04T04:50:25.112Z,6.55
2017-11-04T04:51:05.572Z,6.6
2017-11-04T04:51:45.904Z,6.65
2017-11-04T04:52:26.360Z,6.69
2017-11-04T04:53:06.834Z,6.68
2017-11-04T04:53:47.265Z,6.75
2017-11-04T04:54:27.652Z,6.86
2017-11-04T04:55:07.996Z,6.81
2017-11-04T04:55:48.462Z,6.86
2017-11-04T04:56:28.856Z,6.93
2017-11-04T04:57:09.226Z,7
2017-11-04T04:57:49.644Z,7.05
2017-11-04T04:58:30.073Z,7.11
2017-11-04T04:59:10.503Z,7.23
2017-11-04T04:59:50.913Z,7.36
2017-11-04T05:00:31.308Z,7.45
2017-11-04T05:01:11.711Z,7.57
2017-11-04T05:01:52.171Z,7.51
2017-11-04T05:02:32.695Z,7.57
2017-11-04T05:03:13.026Z,7.67
2017-11-04T05:03:53.471Z,7.62
2017-11-04T05:04:33.964Z,7.63
2017-11-04T05:05:14.303Z,7.71
2017-11-04T05:05:54.750Z,7.81
2017-11-04T05:06:35.134Z,7.91
2017-11-04T05:07:15.624Z,8
2017-11-04T05:07:55.994Z,7.94
2017-11-04T05:08:36.384Z,8.03
2017-11-04T05:09:16.857Z,8.04
2017-11-04T05:09:57.236Z,8.07
2017-11-04T05:10:37.691Z,8.2
2017-11-04T05:11:18.070Z,8.13
2017-11-04T05:11:58.435Z,8.18
2017-11-04T05:12:38.869Z,8.17
2017-11-04T05:13:19.187Z,8.13
2017-11-04T05:13:59.793Z,8.14
2017-11-04T05:14:40.175Z,8.14
2017-11-04T05:15:20.639Z,8.24
2017-11-04T05:16:01.016Z,8.17
2017-11-04T05:16:41.388Z,8.18
2017-11-04T05:17:21.962Z,8.14
2017-11-04T05:18:02.307Z,8.22
2017-11-04T05:18:42.716Z,8.17
2017-11-04T05:19:23.067Z,8.24
2017-11-04T05:20:03.535Z,8.21
2017-11-04T05:20:43.965Z,8.28
2017-11-04T05:21:24.336Z,8.28
2017-11-04T05:22:04.756Z,8.2
2017-11-04T05:22:45.133Z,8.17
2017-11-04T05:23:25.562Z,8.2
2017-11-04T05:24:05.927Z,8.17
2017-11-04T05:24:46.402Z,8.18
2017-11-04T05:25:26.884Z,8.14
2017-11-04T05:26:07.229Z,8.13
2017-11-04T05:26:47.613Z,8.22
2017-11-04T05:27:28.061Z,8.25
2017-11-04T05:28:08.481Z,8.17
2017-11-04T05:28:48.808Z,8.14
2017-11-04T05:29:29.311Z,8.18
2017-11-04T05:30:09.611Z,8.2
2017-11-04T05:30:50.149Z,8.2
2017-11-04T05:31:30.562Z,8.21
2017-11-04T05:32:10.957Z,8.14
2017-11-04T05:32:51.364Z,8.31
2017-11-04T05:33:31.790Z,8.29
2017-11-04T05:34:12.212Z,8.37
2017-11-04T05:34:52.641Z,8.31
2017-11-04T05:35:33.035Z,8.31
2017-11-04T05:36:13.468Z,8.32
2017-11-04T05:36:53.883Z,8.28
2017-11-04T05:37:34.209Z,8.29
2017-11-04T05:38:14.603Z,8.29
2017-11-04T05:38:55.025Z,8.34
2017-11-04T05:39:35.490Z,8.31
2017-11-04T05:40:15.898Z,8.34
2017-11-04T05:40:56.263Z,8.32
2017-11-04T05:41:36.697Z,8.29
2017-11-04T05:42:17.156Z,8.21
2017-11-04T05:42:57.551Z,8.31
2017-11-04T05:43:37.907Z,8.2
2017-11-04T05:44:18.422Z,8.31
2017-11-04T05:44:58.939Z,8.34
2017-11-04T05:45:39.296Z,8.31
2017-11-04T05:46:19.719Z,8.25
2017-11-04T05:47:00.095Z,8.34
2017-11-04T05:47:40.532Z,8.31
2017-11-04T05:48:20.888Z,8.27
2017-11-04T05:49:01.375Z,8.36
2017-11-04T05:49:41.834Z,8.36
2017-11-04T05:50:22.320Z,8.37
2017-11-04T05:51:02.704Z,8.37
2017-11-04T05:51:43.287Z,8.32
2017-11-04T05:52:23.603Z,8.34
2017-11-04T05:53:04.052Z,8.34
2017-11-04T05:53:44.469Z,8.31
2017-11-04T05:54:25.051Z,8.25
2017-11-04T05:55:05.621Z,8.29
2017-11-04T05:55:46.054Z,8.32
2017-11-04T05:56:26.413Z,8.22
2017-11-04T05:57:06.811Z,8.18
2017-11-04T05:57:47.293Z,8.2
2017-11-04T05:58:27.841Z,8.09
2017-11-04T05:59:08.297Z,8.2
2017-11-04T05:59:48.685Z,8.06
2017-11-04T06:00:29.073Z,8.07
2017-11-04T06:01:09.520Z,8.1
2017-11-04T06:01:49.936Z,8.06
2017-11-04T06:02:30.362Z,8.02
2017-11-04T06:03:10.829Z,8.02
2017-11-04T06:03:51.232Z,8.03
2017-11-04T06:04:31.541Z,7.95
2017-11-04T06:05:12.042Z,8.09
2017-11-04T06:05:52.347Z,7.95
2017-11-04T06:06:32.898Z,7.95
2017-11-04T06:07:13.454Z,7.88
2017-11-04T06:07:53.919Z,7.95
2017-11-04T06:08:34.285Z,7.96
2017-11-04T06:09:14.722Z,7.94
2017-11-04T06:09:55.374Z,7.94
2017-11-04T06:10:35.730Z,7.94
2017-11-04T06:11:16.271Z,7.89
2017-11-04T06:11:56.703Z,8
2017-11-04T06:12:37.135Z,7.99
2017-11-04T06:13:17.495Z,7.96
2017-11-04T06:13:57.863Z,8.04
2017-11-04T06:14:38.446Z,8.03
2017-11-04T06:15:18.847Z,8.06
2017-11-04T06:15:59.201Z,8.13
2017-11-04T06:16:39.669Z,8.09
2017-11-04T06:17:20.221Z,8.07
2017-11-04T06:18:00.610Z,8.1
2017-11-04T06:18:41.041Z,8.02
2017-11-04T06:19:21.577Z,8.03
2017-11-04T06:20:01.945Z,8.03
2017-11-04T06:20:42.352Z,8.02
2017-11-04T06:21:22.820Z,7.94
2017-11-04T06:22:03.204Z,7.91
2017-11-04T06:22:43.579Z,7.94
2017-11-04T06:23:24.126Z,7.95
2017-11-04T06:24:04.703Z,7.94
2017-11-04T06:24:45.138Z,7.92
2017-11-04T06:25:25.555Z,8.03
2017-11-04T06:26:06.106Z,7.94
2017-11-04T06:26:46.499Z,8
2017-11-04T06:27:26.932Z,7.99
2017-11-04T06:28:07.326Z,8.02
2017-11-04T06:28:47.790Z,8.02
2017-11-04T06:29:28.205Z,8.02
2017-11-04T06:30:08.554Z,8.06
2017-11-04T06:30:49.115Z,8.1
2017-11-04T06:31:29.447Z,8.02
2017-11-04T06:32:09.933Z,8
2017-11-04T06:32:50.490Z,8
2017-11-04T06:33:30.949Z,8.04
2017-11-04T06:34:11.418Z,8.06
2017-11-04T06:34:51.921Z,8.02
2017-11-04T06:35:32.343Z,8.03
2017-11-04T06:36:12.794Z,8.06
2017-11-04T06:36:53.207Z,8.06
2017-11-04T06:37:33.608Z,7.99
2017-11-04T06:38:14.059Z,7.99
2017-11-04T06:38:54.491Z,8.06
2017-11-04T06:39:35.005Z,8.06
2017-11-04T06:40:15.416Z,8.07
2017-11-04T06:40:55.830Z,8.03
2017-11-04T06:41:36.130Z,8.06
2017-11-04T06:42:16.665Z,8.03
2017-11-04T06:42:57.022Z,8.07
2017-11-04T06:43:37.394Z,8.1
2017-11-04T06:44:17.788Z,8.1
2017-11-04T06:44:58.212Z,8.13
2017-11-04T06:45:38.554Z,8.13
2017-11-04T06:46:19.006Z,8.1
2017-11-04T06:46:59.414Z,8.14
2017-11-04T06:47:39.803Z,8.14
2017-11-04T06:48:20.210Z,8.14
2017-11-04T06:49:00.561Z,8.22
2017-11-04T06:49:41.054Z,8.22
2017-11-04T06:50:21.404Z,8.22
2017-11-04T06:51:01.816Z,8.29
2017-11-04T06:51:42.239Z,8.31
2017-11-04T06:52:22.600Z,8.14
2017-11-04T06:53:03.039Z,8.29
2017-11-04T06:53:43.438Z,8.32
2017-11-04T06:54:23.813Z,8.29
2017-11-04T06:55:04.261Z,8.29
2017-11-04T06:55:44.686Z,8.27
2017-11-04T06:56:25.856Z,8.31
2017-11-04T06:57:06.302Z,8.32
2017-11-04T06:57:46.658Z,8.18
2017-11-04T06:58:27.136Z,8.28
2017-11-04T06:59:07.459Z,8.34
2017-11-04T06:59:47.924Z,8.31
2017-11-04T07:00:28.363Z,8.28
2017-11-04T07:01:08.903Z,8.36
2017-11-04T07:01:49.265Z,8.37
2017-11-04T07:02:29.711Z,8.39
2017-11-04T07:03:10.108Z,8.37
2017-11-04T07:03:50.630Z,8.42
2017-11-04T07:04:31.069Z,8.4
2017-11-04T07:05:11.408Z,8.39
2017-11-04T07:05:51.840Z,8.39
2017-11-04T07:06:32.217Z,8.34
2017-11-04T07:07:12.607Z,8.5
2017-11-04T07:07:53.102Z,8.54
2017-11-04T07:08:33.525Z,8.55
2017-11-04T07:09:13.935Z,8.45
2017-11-04T07:09:54.432Z,8.54
2017-11-04T07:10:34.765Z,8.45
2017-11-04T07:11:15.252Z,8.5
2017-11-04T07:11:55.746Z,8.58
2017-11-04T07:12:36.121Z,8.6
2017-11-04T07:13:16.570Z,8.6
2017-11-04T07:13:56.987Z,8.6
2017-11-04T07:14:37.527Z,8.58
2017-11-04T07:15:18.016Z,8.6
2017-11-04T07:15:58.373Z,8.6
2017-11-04T07:16:38.814Z,8.6
2017-11-04T07:17:19.193Z,8.67
2017-11-04T07:17:59.742Z,8.7
2017-11-04T07:18:40.218Z,8.67
2017-11-04T07:19:20.633Z,8.67
2017-11-04T07:20:01.028Z,8.67
2017-11-04T07:20:41.415Z,8.63
2017-11-04T07:21:21.816Z,8.64
2017-11-04T07:22:02.266Z,8.71
2017-11-04T07:22:42.623Z,8.61
2017-11-04T07:23:23.089Z,8.73
2017-11-04T07:24:03.420Z,8.73
2017-11-04T07:24:44.012Z,8.75
2017-11-04T07:25:24.436Z,8.64
2017-11-04T07:26:05.584Z,8.71
2017-11-04T07:26:45.183Z,8.63
2017-11-04T07:27:25.702Z,8.76
2017-11-04T07:28:06.162Z,8.68
2017-11-04T07:28:46.531Z,8.78
2017-11-04T07:29:26.898Z,8.67
2017-11-04T07:30:07.365Z,8.68
2017-11-04T07:30:47.800Z,8.78
2017-11-04T07:31:28.264Z,8.73
2017-11-04T07:32:08.701Z,8.7
2017-11-04T07:32:49.073Z,8.58
2017-11-04T07:33:29.495Z,8.73
2017-11-04T07:34:09.956Z,8.68
2017-11-04T07:34:50.400Z,8.68
2017-11-04T07:35:30.755Z,8.65
2017-11-04T07:36:11.240Z,8.6
2017-11-04T07:36:51.570Z,8.67
2017-11-04T07:37:31.983Z,8.61
2017-11-04T07:38:12.347Z,8.54
2017-11-04T07:38:52.729Z,8.54
2017-11-04T07:39:33.234Z,8.6
2017-11-04T07:40:13.635Z,8.5
2017-11-04T07:40:54.003Z,8.54
2017-11-04T07:41:34.383Z,8.49
2017-11-04T07:42:15.297Z,8.57
2017-11-04T07:42:55.441Z,8.52
2017-11-04T07:43:36.767Z,8.49
2017-11-04T07:44:17.163Z,8.57
2017-11-04T07:44:57.687Z,8.57
2017-11-04T07:45:38.166Z,8.67
2017-11-04T07:46:18.560Z,8.65
2017-11-04T07:46:59.043Z,8.73
2017-11-04T07:47:39.551Z,8.75
2017-11-04T07:48:19.939Z,8.89
2017-11-04T07:49:00.421Z,8.96
2017-11-04T07:49:40.896Z,9.08
2017-11-04T07:50:21.312Z,9.04
2017-11-04T07:51:01.770Z,9.08
2017-11-04T07:51:42.227Z,9.15
2017-11-04T07:52:22.752Z,9.27
2017-11-04T07:53:03.186Z,9.24
2017-11-04T07:53:43.590Z,9.37
2017-11-04T07:54:24.079Z,9.44
2017-11-04T07:55:04.502Z,9.45
2017-11-04T07:55:45.138Z,9.6
2017-11-04T07:56:25.519Z,9.65
2017-11-04T07:57:05.876Z,9.68
2017-11-04T07:57:46.408Z,9.73
2017-11-04T07:58:26.878Z,9.83
2017-11-04T07:59:07.216Z,9.89
2017-11-04T07:59:47.721Z,10.01
2017-11-04T08:00:28.116Z,9.96
2017-11-04T08:01:08.496Z,10.1
2017-11-04T08:01:48.868Z,10.22
2017-11-04T08:02:29.308Z,10.35
2017-11-04T08:03:12.430Z,10.31
2017-11-04T08:03:53.257Z,10.52
2017-11-04T08:04:33.666Z,10.52
2017-11-04T08:05:14.123Z,10.52
2017-11-04T08:05:54.495Z,10.57
2017-11-04T08:06:34.840Z,10.55
2017-11-04T08:07:15.413Z,10.63
2017-11-04T08:07:55.899Z,10.54
2017-11-04T08:08:36.245Z,10.62
2017-11-04T08:09:16.676Z,10.57
2017-11-04T08:09:57.147Z,10.65
2017-11-04T08:10:37.518Z,10.7
2017-11-04T08:11:17.967Z,10.72
2017-11-04T08:11:58.312Z,10.76
2017-11-04T08:12:38.837Z,10.9
2017-11-04T08:13:19.178Z,10.88
2017-11-04T08:13:59.672Z,10.98
2017-11-04T08:14:40.018Z,11.06
2017-11-04T08:15:20.556Z,11.05
2017-11-04T08:16:00.966Z,11.23
2017-11-04T08:16:41.376Z,11.27
2017-11-04T08:17:21.820Z,11.31
2017-11-04T08:18:02.262Z,11.36
2017-11-04T08:18:42.676Z,11.6
2017-11-04T08:19:23.134Z,11.69
2017-11-04T08:20:03.617Z,11.77
2017-11-04T08:20:44.022Z,11.82
2017-11-04T08:21:24.388Z,11.97
2017-11-04T08:22:04.778Z,11.94
2017-11-04T08:22:45.264Z,12.12
2017-11-04T08:23:25.632Z,12.13
2017-11-04T08:24:06.122Z,12.38
2017-11-04T08:24:46.516Z,12.43
2017-11-04T08:25:26.891Z,12.48
2017-11-04T08:26:07.323Z,12.58
2017-11-04T08:26:47.755Z,12.74
2017-11-04T08:27:28.185Z,12.81
2017-11-04T08:28:08.537Z,12.85
2017-11-04T08:28:48.990Z,12.99
2017-11-04T08:29:29.444Z,13.06
2017-11-04T08:30:09.949Z,13.1
2017-11-04T08:30:50.388Z,13.13
2017-11-04T08:31:30.783Z,13.24
2017-11-04T08:32:11.184Z,13.19
2017-11-04T08:32:51.635Z,13.28
2017-11-04T08:33:32.041Z,13.39
2017-11-04T08:34:12.475Z,13.47
2017-11-04T08:34:52.959Z,13.47
2017-11-04T08:35:33.316Z,13.46
2017-11-04T08:36:13.736Z,13.55
2017-11-04T08:36:54.211Z,13.69
2017-11-04T08:37:34.611Z,13.8
2017-11-04T08:38:15.018Z,13.87
2017-11-04T08:38:55.455Z,13.99
2017-11-04T08:39:35.876Z,14.06
2017-11-04T08:40:16.251Z,14.11
2017-11-04T08:40:56.739Z,14.19
2017-11-04T08:41:37.063Z,14.29
2017-11-04T08:42:17.598Z,14.26
2017-11-04T08:42:57.959Z,14.42
2017-11-04T08:43:38.400Z,14.64
2017-11-04T08:44:18.793Z,14.63
2017-11-04T08:44:59.271Z,14.67
2017-11-04T08:45:39.790Z,14.75
2017-11-04T08:46:20.368Z,14.91
2017-11-04T08:47:00.823Z,15.03
2017-11-04T08:47:41.389Z,15.22
2017-11-04T08:48:22.000Z,15.2
2017-11-04T08:49:02.390Z,15.31
2017-11-04T08:49:42.867Z,15.41
2017-11-04T08:50:23.238Z,15.4
2017-11-04T08:51:03.750Z,15.58
2017-11-04T08:51:44.192Z,15.74
2017-11-04T08:52:24.671Z,15.84
2017-11-04T08:53:05.221Z,15.85
2017-11-04T08:53:48.694Z,15.95
2017-11-04T08:54:29.110Z,15.95
2017-11-04T08:55:13.286Z,15.96
2017-11-04T08:56:03.367Z,16.04
2017-11-04T08:56:43.790Z,15.99
2017-11-04T08:57:24.218Z,15.98
2017-11-04T08:58:04.579Z,15.84
2017-11-04T08:58:45.025Z,15.81
2017-11-04T08:59:25.472Z,15.85
2017-11-04T09:00:05.787Z,15.86
2017-11-04T09:00:46.269Z,15.93
2017-11-04T09:01:26.669Z,15.98
2017-11-04T09:02:07.112Z,15.92
2017-11-04T09:02:47.524Z,15.93
2017-11-04T09:03:27.949Z,15.88
2017-11-04T09:04:08.299Z,15.85
2017-11-04T09:04:48.717Z,15.74
2017-11-04T09:05:29.136Z,15.62
2017-11-04T09:06:09.725Z,15.64
2017-11-04T09:06:50.184Z,15.49
2017-11-04T09:07:30.633Z,15.4
2017-11-04T09:08:11.097Z,15.41
2017-11-04T09:08:51.552Z,15.37
2017-11-04T09:09:32.029Z,15.49
2017-11-04T09:10:12.426Z,15.41
2017-11-04T09:10:52.861Z,15.35
2017-11-04T09:11:33.280Z,15.35
2017-11-04T09:12:13.650Z,15.43
2017-11-04T09:12:54.132Z,15.38
2017-11-04T09:13:34.601Z,15.37
2017-11-04T09:14:14.996Z,15.2
2017-11-04T09:14:55.406Z,15.2
2017-11-04T09:15:35.862Z,15.23
2017-11-04T09:16:16.474Z,15.16
2017-11-04T09:16:56.835Z,15.07
2017-11-04T09:17:37.268Z,15.03
2017-11-04T09:18:17.771Z,14.95
2017-11-04T09:18:58.300Z,14.78
2017-11-04T09:19:38.711Z,14.72
2017-11-04T09:20:19.168Z,14.59
2017-11-04T09:20:59.732Z,14.66
2017-11-04T09:21:40.141Z,14.6
2017-11-04T09:22:20.672Z,14.71
2017-11-04T09:23:01.236Z,14.9
2017-11-04T09:23:41.712Z,15.04
2017-11-04T09:24:22.093Z,15.01
2017-11-04T09:25:02.534Z,15.18
2017-11-04T09:25:42.940Z,15.11
2017-11-04T09:26:23.353Z,15.22
2017-11-04T09:27:03.847Z,15.38
2017-11-04T09:27:44.280Z,15.38
2017-11-04T09:28:24.660Z,15.64
2017-11-04T09:29:05.130Z,15.74
2017-11-04T09:29:45.476Z,15.84
2017-11-04T09:30:25.974Z,15.91
2017-11-04T09:31:06.358Z,16.16
2017-11-04T09:31:46.708Z,16.17
2017-11-04T09:32:27.328Z,16.32
2017-11-04T09:33:07.766Z,16.44
2017-11-04T09:33:48.230Z,16.52
2017-11-04T09:34:28.696Z,16.48
2017-11-04T09:35:09.023Z,16.62
2017-11-04T09:35:49.481Z,16.62
2017-11-04T09:36:29.883Z,16.62
2017-11-04T09:37:10.409Z,16.59
2017-11-04T09:37:50.844Z,16.62
2017-11-04T09:38:31.323Z,16.63